Time;durP1;ratioP1;P1;durP2;ratioP2;P2;SDS_P1;SDS_P2;PMS_P1;PMS_P2;Temp;Humidity;BMP_temperature;BMP_pressure;BME280_temperature;BME280_humidity;BME280_pressure;Samples;Min_cycle;Max_cycle;Signal;HPM_P1;HPM_P2
2023/10/04 05:28:29;;;;;;;;;2.75;2.00;;;;;20.48;50.66;102517.72;5176366;27;45305;-57
2023/10/04 05:30:56;;;;;;;;;1.50;1.50;;;;;20.85;49.36;102521.84;5158640;27;45365;-57
2023/10/04 05:33:22;;;;;;;;;3.00;1.75;;;;;20.93;49.30;102506.75;5157607;27;45439;-58
2023/10/04 05:35:52;;;;;;;;;2.75;2.00;;;;;21.08;48.57;102529.50;5158015;27;45498;-58
2023/10/04 05:38:18;;;;;;;;;2.50;1.50;;;;;21.21;47.96;102516.00;5157201;27;45446;-58
2023/10/04 05:40:48;;;;;;;;;4.75;2.25;;;;;21.23;48.11;102516.78;5158305;27;45255;-58
2023/10/04 05:43:15;;;;;;;;;5.00;1.75;;;;;21.36;47.94;102515.91;5158364;27;45310;-57
2023/10/04 05:45:42;;;;;;;;;1.50;1.50;;;;;21.53;47.50;102512.13;5158225;27;45417;-58
2023/10/04 05:48:09;;;;;;;;;3.25;1.25;;;;;21.57;47.19;102508.22;5157032;27;45348;-58
2023/10/04 05:50:35;;;;;;;;;2.25;2.00;;;;;21.65;46.95;102511.34;5158134;27;45287;-58
2023/10/04 05:53:05;;;;;;;;;3.00;3.00;;;;;21.75;46.68;102503.44;5157273;27;45328;-58
2023/10/04 05:55:32;;;;;;;;;2.00;2.00;;;;;21.81;46.91;102503.91;5157383;27;45338;-58
2023/10/04 05:57:57;;;;;;;;;5.00;2.25;;;;;21.84;46.57;102513.75;5157812;27;45406;-58
2023/10/04 06:00:28;;;;;;;;;5.00;2.00;;;;;21.93;46.18;102513.16;5157808;27;45311;-57
2023/10/04 06:02:55;;;;;;;;;2.00;0.50;;;;;21.85;46.13;102520.97;5157451;27;45379;-58
2023/10/04 06:05:25;;;;;;;;;2.75;2.00;;;;;21.81;46.51;102527.59;5157263;27;45514;-58
2023/10/04 06:07:51;;;;;;;;;7.25;2.25;;;;;22.05;46.21;102528.75;5157930;27;45466;-54
2023/10/04 06:10:18;;;;;;;;;1.50;1.50;;;;;22.05;46.08;102523.28;5157761;27;45339;-55
2023/10/04 06:12:46;;;;;;;;;2.00;2.00;;;;;22.02;45.97;102531.72;5157375;27;45599;-55
2023/10/04 06:15:16;;;;;;;;;2.50;2.00;;;;;22.10;45.61;102537.53;5157305;27;46066;-53
2023/10/04 06:17:42;;;;;;;;;5.75;2.75;;;;;21.99;45.81;102531.91;5156961;27;46952;-55
2023/10/04 06:22:55;;;;;;;;;2.25;2.25;;;;;22.02;45.89;102528.09;5157439;27;45366;-56
2023/10/04 06:25:22;;;;;;;;;2.75;1.25;;;;;22.01;45.55;102535.41;5157401;27;45897;-54
2023/10/04 06:27:50;;;;;;;;;1.75;0.00;;;;;21.82;45.99;102527.50;5151713;27;46469;-54
2023/10/04 06:30:20;;;;;;;;;6.25;2.50;;;;;21.52;46.74;102516.69;5143495;27;45337;-56
2023/10/04 06:32:46;;;;;;;;;4.00;2.00;;;;;21.56;46.67;102527.41;5142927;27;45325;-54
2023/10/04 06:35:11;;;;;;;;;5.25;4.00;;;;;21.71;46.29;102518.25;5143367;27;45384;-55
2023/10/04 06:37:36;;;;;;;;;5.75;3.00;;;;;21.69;46.70;102532.00;5143245;27;49127;-56
2023/10/04 06:40:03;;;;;;;;;7.50;1.50;;;;;21.69;46.57;102542.91;5143521;27;45454;-55
2023/10/04 06:42:28;;;;;;;;;1.00;1.00;;;;;21.66;46.85;102525.88;5143314;27;45422;-54
2023/10/04 06:44:54;;;;;;;;;3.25;2.00;;;;;21.80;46.56;102534.03;5143067;27;52920;-56
2023/10/04 06:47:20;;;;;;;;;1.00;1.00;;;;;21.92;46.01;102540.56;5142761;27;47243;-56
2023/10/04 06:49:46;;;;;;;;;3.00;3.00;;;;;21.99;45.71;102541.94;5143167;27;45324;-54
2023/10/04 06:52:11;;;;;;;;;4.75;3.00;;;;;22.04;45.71;102537.94;5142993;27;45340;-55
2023/10/04 06:54:36;;;;;;;;;4.25;2.75;;;;;22.15;45.82;102540.84;5143188;27;45907;-54
2023/10/04 06:57:03;;;;;;;;;4.75;2.00;;;;;22.34;45.33;102548.69;5142916;27;47021;-54
2023/10/04 06:59:28;;;;;;;;;3.75;3.00;;;;;22.39;45.08;102532.84;5143103;27;45382;-53
2023/10/04 07:01:53;;;;;;;;;3.75;3.75;;;;;22.51;44.91;102548.44;5143017;27;45322;-55
2023/10/04 07:04:19;;;;;;;;;2.75;1.50;;;;;22.58;44.91;102546.16;5142127;27;59735;-57
2023/10/04 07:06:44;;;;;;;;;3.25;2.75;;;;;22.54;44.64;102566.50;5142700;27;46200;-54
2023/10/04 07:09:10;;;;;;;;;2.00;2.00;;;;;22.47;44.65;102570.59;5142948;27;45365;-55
2023/10/04 07:11:36;;;;;;;;;5.00;3.00;;;;;22.64;44.66;102573.94;5142683;27;45398;-55
2023/10/04 07:14:04;;;;;;;;;5.25;4.00;;;;;22.72;44.40;102570.69;5142711;27;46010;-56
2023/10/04 07:16:29;;;;;;;;;5.25;4.25;;;;;22.81;44.55;102564.63;5142429;27;46276;-55
2023/10/04 07:18:55;;;;;;;;;3.00;2.25;;;;;22.75;44.31;102576.00;5142045;27;45323;-54
2023/10/04 07:21:20;;;;;;;;;5.25;4.00;;;;;22.64;44.47;102578.53;5142406;27;45974;-55
2023/10/04 07:23:46;;;;;;;;;2.00;2.00;;;;;22.76;44.58;102560.47;5142295;27;45237;-54
2023/10/04 07:26:11;;;;;;;;;2.00;2.00;;;;;22.89;44.27;102561.38;5135374;27;45902;-56
2023/10/04 07:28:38;;;;;;;;;5.50;4.00;;;;;22.96;43.65;102566.34;5140531;27;45348;-55
2023/10/04 07:31:03;;;;;;;;;3.25;3.25;;;;;22.97;43.61;102573.53;5142275;27;45530;-55
2023/10/04 07:33:28;;;;;;;;;2.00;2.00;;;;;23.10;43.81;102575.44;5141336;27;54748;-55
2023/10/04 07:35:55;;;;;;;;;2.75;2.75;;;;;23.14;43.77;102572.34;5142289;27;45321;-55
2023/10/04 07:38:20;;;;;;;;;5.25;4.25;;;;;23.24;43.23;102581.69;5141984;27;45385;-55
2023/10/04 07:40:46;;;;;;;;;4.00;3.00;;;;;23.44;43.28;102591.25;5141247;27;45362;-55
2023/10/04 07:43:11;;;;;;;;;2.50;2.50;;;;;23.56;43.14;102601.34;5142109;27;49183;-56
2023/10/04 07:45:38;;;;;;;;;3.00;3.00;;;;;23.39;42.86;102598.91;5142344;27;46336;-55
2023/10/04 07:48:04;;;;;;;;;4.50;3.50;;;;;23.37;42.89;102590.81;5142009;27;45309;-54
2023/10/04 07:50:29;;;;;;;;;4.50;3.00;;;;;23.34;43.09;102591.00;5142421;27;45321;-55
2023/10/04 07:52:56;;;;;;;;;3.00;3.00;;;;;23.55;43.30;102605.09;5142111;27;45434;-56
2023/10/04 07:55:24;;;;;;;;;4.00;4.00;;;;;23.59;42.66;102603.88;5142282;27;46324;-54
2023/10/04 07:57:53;;;;;;;;;4.75;3.50;;;;;23.56;43.03;102606.81;5141830;27;45387;-55
2023/10/04 08:00:20;;;;;;;;;3.50;2.00;;;;;23.65;42.88;102605.28;5142241;27;45338;-54
2023/10/04 08:02:50;;;;;;;;;2.75;2.75;;;;;23.58;43.21;102606.69;5140986;27;45187;-54
2023/10/04 08:05:21;;;;;;;;;3.75;2.75;;;;;23.64;42.80;102609.91;5141696;27;45373;-54
2023/10/04 08:07:48;;;;;;;;;3.75;2.75;;;;;23.85;43.08;102602.00;5141656;27;45367;-54
2023/10/04 08:10:13;;;;;;;;;3.00;3.00;;;;;24.04;42.74;102604.28;5141987;27;45385;-55
2023/10/04 08:12:40;;;;;;;;;4.00;3.00;;;;;24.26;42.41;102609.06;5141896;27;45464;-54
2023/10/04 08:15:07;;;;;;;;;2.75;2.75;;;;;24.43;41.62;102617.78;5141730;27;46325;-55
2023/10/04 08:17:33;;;;;;;;;2.75;2.00;;;;;24.45;41.93;102615.81;5141408;27;45368;-55
2023/10/04 08:19:58;;;;;;;;;3.75;3.75;;;;;24.63;41.32;102604.44;5127574;27;45237;-55
2023/10/04 08:22:24;;;;;;;;;5.00;5.00;;;;;24.61;40.80;102606.44;5141803;27;45328;-56
2023/10/04 08:24:49;;;;;;;;;4.00;2.25;;;;;24.59;40.99;102606.53;5141541;27;46020;-56
2023/10/04 08:27:16;;;;;;;;;5.00;4.00;;;;;24.60;41.51;102602.81;5132800;27;45495;-54
2023/10/04 08:29:43;;;;;;;;;2.75;2.75;;;;;24.44;41.36;102603.09;5141785;27;45212;-54
2023/10/04 08:32:09;;;;;;;;;5.25;2.00;;;;;24.38;41.34;102588.97;5140792;27;45490;-55
2023/10/04 08:34:35;;;;;;;;;7.25;2.00;;;;;24.47;41.09;102589.16;5141273;27;46102;-57
2023/10/04 08:37:00;;;;;;;;;0.00;0.00;;;;;24.68;40.70;102599.47;5141724;27;45322;-53
2023/10/04 08:39:26;;;;;;;;;5.00;3.50;;;;;24.81;41.13;102592.97;5141560;27;45318;-56
2023/10/04 08:41:52;;;;;;;;;5.25;4.00;;;;;24.81;40.52;102587.47;5141267;27;45400;-55
2023/10/04 08:44:18;;;;;;;;;7.00;3.50;;;;;24.72;40.58;102595.53;5141173;27;47392;-54
2023/10/04 08:46:46;;;;;;;;;4.25;3.25;;;;;24.63;40.70;102586.13;5141021;27;45583;-52
2023/10/04 08:49:15;;;;;;;;;3.25;2.50;;;;;24.81;41.18;102603.06;5140911;27;45421;-55
2023/10/04 08:51:45;;;;;;;;;3.00;2.00;;;;;24.93;40.36;102607.63;5140537;27;45477;-56
2023/10/04 08:54:14;;;;;;;;;6.75;3.50;;;;;25.03;40.37;102602.28;5140824;27;45494;-53
2023/10/04 08:57:13;;;;;;;;;3.00;3.00;;;;;25.15;39.75;102606.84;5140802;27;45505;-54
2023/10/04 08:59:40;;;;;;;;;6.50;5.00;;;;;25.07;40.03;102614.81;5141160;27;45549;-55
2023/10/04 09:02:10;;;;;;;;;5.00;5.00;;;;;24.85;40.50;102623.75;5140297;27;45798;-58
2023/10/04 09:04:39;;;;;;;;;3.50;3.00;;;;;24.95;40.66;102613.00;5140230;27;45381;-55
2023/10/04 09:07:08;;;;;;;;;2.25;2.25;;;;;24.99;40.22;102622.75;5140300;27;45457;-54
2023/10/04 09:09:38;;;;;;;;;3.00;3.00;;;;;25.06;40.32;102621.28;5140647;27;45286;-56
2023/10/04 09:12:03;;;;;;;;;6.00;1.25;;;;;25.14;40.23;102605.09;5140705;27;45966;-57
2023/10/04 09:14:29;;;;;;;;;4.00;3.00;;;;;25.17;40.13;102605.75;5141094;27;45318;-54
2023/10/04 09:17:12;;;;;;;;;3.50;3.00;;;;;25.20;40.07;102597.25;5140566;27;45426;-55
2023/10/04 09:19:38;;;;;;;;;7.25;4.75;;;;;25.17;40.04;102600.25;5128424;27;45384;-55
2023/10/04 09:22:05;;;;;;;;;5.00;4.25;;;;;25.27;39.90;102598.50;5138964;27;45444;-56
2023/10/04 09:24:31;;;;;;;;;3.75;3.75;;;;;25.36;40.05;102604.25;5140791;27;45387;-56
2023/10/04 09:26:57;;;;;;;;;4.25;4.00;;;;;25.49;39.40;102602.31;5132529;27;45388;-55
2023/10/04 09:29:33;;;;;;;;;3.00;3.00;;;;;25.65;39.19;102607.50;5140617;27;45284;-56
2023/10/04 09:31:59;;;;;;;;;3.75;3.50;;;;;25.63;38.99;102619.47;5118383;27;47261;-57
2023/10/04 09:34:26;;;;;;;;;6.25;3.50;;;;;25.76;39.63;102615.75;5133617;27;46260;-55
2023/10/04 09:36:52;;;;;;;;;5.00;4.25;;;;;25.85;39.25;102599.41;5140544;27;45293;-55
2023/10/04 09:39:23;;;;;;;;;5.00;3.25;;;;;26.06;39.05;102613.25;5140997;27;45383;-54
2023/10/04 09:41:54;;;;;;;;;4.75;4.00;;;;;25.95;38.59;102605.88;5140189;27;45584;-53
2023/10/04 09:44:25;;;;;;;;;6.50;4.00;;;;;25.94;38.59;102606.03;5139960;27;45537;-56
2023/10/04 09:46:54;;;;;;;;;4.25;2.25;;;;;25.97;37.87;102592.00;5139843;27;45417;-54
2023/10/04 09:49:25;;;;;;;;;4.50;3.00;;;;;26.03;38.37;102586.00;5140526;27;45322;-54
2023/10/04 09:51:53;;;;;;;;;1.00;1.00;;;;;26.03;38.03;102583.25;5140375;27;45859;-54
2023/10/04 09:54:18;;;;;;;;;3.00;3.00;;;;;26.10;38.05;102597.41;5140277;27;45342;-55
2023/10/04 09:56:46;;;;;;;;;3.00;1.25;;;;;26.22;37.28;102593.63;5140611;27;45330;-57
2023/10/04 09:59:16;;;;;;;;;2.75;2.75;;;;;26.14;37.71;102582.38;5139997;27;45174;-54
2023/10/04 10:01:42;;;;;;;;;4.75;3.00;;;;;26.38;37.87;102585.88;5140364;27;45468;-56
2023/10/04 10:04:16;;;;;;;;;3.50;2.00;;;;;26.34;37.78;102589.88;5142336;27;46648;-54
2023/10/04 10:06:56;;;;;;;;;9.25;2.00;;;;;26.20;37.26;102593.72;5144099;27;45471;-54
2023/10/04 10:09:24;;;;;;;;;2.50;2.50;;;;;26.43;37.72;102589.13;5143752;27;45318;-56
2023/10/04 10:11:52;;;;;;;;;3.25;3.25;;;;;26.52;37.20;102573.72;5143794;27;45444;-56
2023/10/04 10:14:21;;;;;;;;;1.00;1.00;;;;;26.54;36.52;102580.81;5134273;27;45466;-56
2023/10/04 10:16:54;;;;;;;;;1.50;1.50;;;;;26.68;36.14;102587.91;5137711;27;45351;-55
2023/10/04 10:19:26;;;;;;;;;3.00;2.00;;;;;26.44;35.87;102581.75;5134370;27;45274;-57
2023/10/04 10:22:08;;;;;;;;;6.00;3.00;;;;;26.34;37.15;102574.25;5139448;27;45300;-56
2023/10/04 10:24:34;;;;;;;;;2.75;2.75;;;;;26.60;36.79;102568.44;5142929;27;46240;-55
2023/10/04 10:27:07;;;;;;;;;2.00;2.00;;;;;26.69;36.20;102570.41;5135399;27;45378;-57
2023/10/04 10:29:32;;;;;;;;;1.00;1.00;;;;;26.71;36.48;102572.00;5143763;27;45404;-57
2023/10/04 10:32:00;;;;;;;;;5.00;2.25;;;;;26.77;35.43;102567.00;5143350;27;45305;-56
2023/10/04 10:34:27;;;;;;;;;1.75;1.75;;;;;26.80;35.88;102580.47;5142990;27;45422;-56
2023/10/04 10:37:08;;;;;;;;;3.75;2.00;;;;;26.64;35.23;102584.53;5143377;27;45403;-56
2023/10/04 10:39:43;;;;;;;;;2.25;2.25;;;;;26.56;35.30;102570.56;5143417;27;45442;-54
2023/10/04 10:42:11;;;;;;;;;2.00;2.00;;;;;26.62;35.01;102571.94;5143002;27;45391;-56
2023/10/04 10:44:39;;;;;;;;;3.75;3.00;;;;;26.74;35.63;102580.00;5142783;27;45489;-56
2023/10/04 10:47:07;;;;;;;;;1.00;1.00;;;;;26.66;35.86;102576.16;5142348;27;45383;-57
2023/10/04 10:49:50;;;;;;;;;2.50;2.50;;;;;26.63;35.10;102559.91;5142722;27;45298;-54
2023/10/04 10:52:33;;;;;;;;;5.75;2.00;;;;;26.67;35.39;102562.28;5142984;27;45295;-55
2023/10/04 10:55:05;;;;;;;;;5.00;2.00;;;;;26.90;36.18;102556.66;5142439;27;46344;-55
2023/10/04 10:57:32;;;;;;;;;8.50;5.25;;;;;27.02;34.45;102562.03;5142773;27;45344;-54
2023/10/04 11:00:03;;;;;;;;;1.75;1.75;;;;;27.08;34.50;102560.63;5143353;27;45400;-54
2023/10/04 11:02:28;;;;;;;;;6.00;2.50;;;;;27.07;35.02;102559.75;5142699;27;45407;-52
2023/10/04 11:04:54;;;;;;;;;5.75;1.75;;;;;27.09;34.56;102570.63;5142889;27;50025;-57
2023/10/04 11:07:21;;;;;;;;;4.75;4.75;;;;;27.21;34.29;102554.94;5142463;27;45335;-54
2023/10/04 11:09:51;;;;;;;;;5.25;2.75;;;;;27.45;33.69;102552.75;5143093;27;45362;-54
2023/10/04 11:12:18;;;;;;;;;3.25;2.00;;;;;27.47;34.22;102542.47;5142325;27;45552;-56
2023/10/04 11:14:44;;;;;;;;;3.75;1.75;;;;;27.49;33.66;102544.06;5142037;27;45483;-55
2023/10/04 11:17:14;;;;;;;;;5.00;3.00;;;;;27.37;33.52;102528.66;5142316;27;45387;-55
2023/10/04 11:19:40;;;;;;;;;1.25;1.25;;;;;27.29;33.80;102528.47;5130616;27;45243;-54
2023/10/04 11:22:05;;;;;;;;;2.50;2.50;;;;;27.58;33.51;102536.03;5141039;27;45275;-55
2023/10/04 11:24:31;;;;;;;;;0.75;0.75;;;;;27.75;33.91;102530.72;5142524;27;56405;-55
2023/10/04 11:26:57;;;;;;;;;6.00;1.00;;;;;28.14;33.73;102542.78;5141658;27;45389;-55
2023/10/04 11:29:30;;;;;;;;;3.50;2.00;;;;;28.39;32.77;102541.41;5142133;27;45419;-54
2023/10/04 11:31:56;;;;;;;;;1.25;1.25;;;;;28.65;32.69;102541.72;5140603;27;45536;-55
2023/10/04 11:34:22;;;;;;;;;4.75;3.75;;;;;28.69;31.85;102525.72;5141252;27;45355;-54
2023/10/04 11:36:48;;;;;;;;;4.00;4.00;;;;;29.14;31.71;102526.91;5141682;27;45424;-52
2023/10/04 11:39:18;;;;;;;;;2.75;1.00;;;;;29.64;30.60;102526.63;5142759;27;45298;-54
2023/10/04 11:41:50;;;;;;;;;2.50;2.50;;;;;30.02;29.64;102528.38;5142363;27;46446;-55
2023/10/04 11:44:18;;;;;;;;;5.00;2.00;;;;;30.36;29.63;102515.66;5142364;27;45358;-55
2023/10/04 11:46:57;;;;;;;;;2.25;1.75;;;;;30.99;28.30;102526.63;5141772;27;45396;-56
2023/10/04 11:49:22;;;;;;;;;1.75;1.75;;;;;31.51;26.56;102521.13;5142231;27;45352;-54
2023/10/04 11:51:51;;;;;;;;;3.00;2.00;;;;;31.77;26.64;102513.69;5142028;27;45357;-56
2023/10/04 11:54:18;;;;;;;;;1.75;1.75;;;;;31.99;25.83;102506.66;5142271;27;46345;-54
2023/10/04 11:56:43;;;;;;;;;2.75;1.25;;;;;32.69;25.10;102501.66;5142170;27;45405;-56
2023/10/04 11:59:09;;;;;;;;;2.00;2.00;;;;;33.73;24.34;102508.16;5142156;27;45348;-54
2023/10/04 12:01:44;;;;;;;;;2.50;1.25;;;;;34.70;23.54;102492.81;5141860;27;45405;-58
2023/10/04 12:04:11;;;;;;;;;3.75;1.25;;;;;35.30;22.61;102491.97;5141211;27;46493;-54
2023/10/04 12:06:37;;;;;;;;;2.75;2.00;;;;;35.96;22.44;102482.63;5142127;27;45312;-55
2023/10/04 12:09:06;;;;;;;;;2.00;2.00;;;;;36.27;22.03;102487.94;5142132;27;45381;-54
2023/10/04 12:11:36;;;;;;;;;2.25;2.00;;;;;35.94;21.71;102478.28;5142141;27;45417;-55
2023/10/04 12:14:06;;;;;;;;;3.50;3.00;;;;;35.80;21.88;102477.25;5141663;27;45945;-56
2023/10/04 12:16:37;;;;;;;;;2.00;2.00;;;;;35.92;22.43;102481.25;5141880;27;45510;-57
2023/10/04 12:19:03;;;;;;;;;1.00;1.00;;;;;36.52;22.16;102473.59;5134818;27;45228;-56
2023/10/04 12:21:28;;;;;;;;;0.75;0.75;;;;;36.03;21.95;102472.41;5134953;27;45346;-54
2023/10/04 12:23:53;;;;;;;;;2.00;2.00;;;;;36.03;22.22;102486.34;5142032;27;45229;-55
2023/10/04 12:26:20;;;;;;;;;5.00;2.00;;;;;36.24;21.65;102479.13;5134709;27;45362;-56
2023/10/04 12:28:49;;;;;;;;;1.25;1.25;;;;;36.20;21.94;102470.25;5141503;27;45553;-56
2023/10/04 12:31:15;;;;;;;;;2.00;2.00;;;;;36.70;21.55;102454.44;5138761;27;45504;-56
2023/10/04 12:33:41;;;;;;;;;2.00;2.00;;;;;37.11;20.83;102448.97;5131973;27;47673;-56
2023/10/04 12:36:06;;;;;;;;;2.00;2.00;;;;;37.04;20.70;102446.13;5135674;27;45310;-54
2023/10/04 12:38:32;;;;;;;;;2.00;2.00;;;;;37.43;20.32;102442.75;5141833;27;45347;-55
2023/10/04 12:40:59;;;;;;;;;3.00;1.75;;;;;37.67;20.53;102441.41;5140899;27;45581;-56
2023/10/04 12:43:24;;;;;;;;;3.00;1.00;;;;;37.44;20.80;102435.22;5140884;27;45387;-54
2023/10/04 12:45:53;;;;;;;;;2.00;2.00;;;;;37.75;19.93;102443.16;5141338;27;45327;-55
2023/10/04 12:48:19;;;;;;;;;0.50;0.50;;;;;37.26;20.08;102432.97;5141284;27;45413;-57
2023/10/04 12:50:45;;;;;;;;;7.25;4.50;;;;;36.92;20.88;102435.72;5141062;27;45294;-55
2023/10/04 12:53:12;;;;;;;;;2.50;2.50;;;;;36.33;21.49;102436.88;5141296;27;45316;-56
2023/10/04 12:55:37;;;;;;;;;3.00;3.00;;;;;35.65;21.88;102427.00;5141306;27;45367;-57
2023/10/04 12:58:04;;;;;;;;;2.00;2.00;;;;;35.36;22.47;102438.19;5141371;27;45380;-54
2023/10/04 13:00:30;;;;;;;;;2.50;2.00;;;;;34.77;23.17;102426.94;5140829;27;45543;-57
2023/10/04 13:02:56;;;;;;;;;1.75;1.00;;;;;34.45;23.53;102435.56;5140149;27;45333;-54
2023/10/04 13:05:22;;;;;;;;;2.75;2.75;;;;;33.71;24.07;102443.44;5140809;27;45429;-55
2023/10/04 13:07:47;;;;;;;;;6.00;3.00;;;;;33.32;24.41;102425.88;5140839;27;45321;-55
2023/10/04 13:10:15;;;;;;;;;2.75;1.25;;;;;33.17;25.01;102425.75;5140593;27;45508;-56
2023/10/04 13:12:41;;;;;;;;;1.00;1.00;;;;;33.29;24.71;102432.66;5141213;27;46232;-54
2023/10/04 13:15:08;;;;;;;;;2.75;2.75;;;;;34.07;24.50;102424.31;5140957;27;45350;-53
2023/10/04 13:17:35;;;;;;;;;1.50;1.50;;;;;35.16;23.09;102421.13;5140460;27;45332;-53
2023/10/04 13:20:00;;;;;;;;;5.75;1.50;;;;;36.12;22.23;102434.03;5126964;27;45848;-55
2023/10/04 13:22:27;;;;;;;;;1.50;1.50;;;;;36.90;21.41;102412.69;5140830;27;45783;-55
2023/10/04 13:24:53;;;;;;;;;3.00;3.00;;;;;37.74;20.23;102422.72;5140889;27;45341;-56
2023/10/04 13:27:18;;;;;;;;;3.00;2.00;;;;;38.38;19.46;102418.56;5132705;27;45490;-55
2023/10/04 13:29:44;;;;;;;;;1.00;1.00;;;;;38.33;19.55;102413.63;5140050;27;45391;-57
2023/10/04 13:32:11;;;;;;;;;3.00;3.00;;;;;38.57;19.40;102404.63;5140678;27;46225;-57
2023/10/04 13:34:38;;;;;;;;;1.75;1.75;;;;;38.32;19.19;102417.50;5140736;27;45267;-56
2023/10/04 13:37:03;;;;;;;;;3.50;2.00;;;;;38.20;19.56;102414.44;5140948;27;45328;-55
2023/10/04 13:39:31;;;;;;;;;1.00;1.00;;;;;38.13;19.52;102421.97;5143265;27;52844;-55
2023/10/04 13:41:57;;;;;;;;;2.25;2.00;;;;;38.42;19.69;102403.94;5144496;27;47429;-56
2023/10/04 13:44:22;;;;;;;;;4.25;1.50;;;;;38.84;18.44;102418.63;5144346;27;45286;-56
2023/10/04 13:46:48;;;;;;;;;2.75;1.50;;;;;38.20;18.99;102407.97;5144603;27;45392;-56
2023/10/04 13:49:17;;;;;;;;;1.75;1.50;;;;;38.23;19.09;102404.75;5143849;27;45311;-56
2023/10/04 13:51:43;;;;;;;;;0.50;0.25;;;;;38.11;18.81;102409.28;5144277;27;45329;-57
2023/10/04 13:54:08;;;;;;;;;2.75;1.75;;;;;38.01;18.93;102411.59;5142974;27;45465;-57
2023/10/04 13:56:35;;;;;;;;;2.75;1.00;;;;;38.03;19.38;102410.28;5144543;27;45347;-57
2023/10/04 13:59:00;;;;;;;;;0.00;0.00;;;;;38.53;18.94;102402.47;5144188;27;45420;-56
2023/10/04 14:01:25;;;;;;;;;3.25;1.00;;;;;38.92;18.75;102396.81;5133399;27;46687;-57
2023/10/04 14:03:51;;;;;;;;;1.00;1.00;;;;;39.09;18.83;102385.16;5139195;27;45313;-56
2023/10/04 14:06:18;;;;;;;;;2.00;1.00;;;;;38.75;18.33;102389.06;5144003;27;45377;-55
2023/10/04 14:08:43;;;;;;;;;1.00;1.00;;;;;37.27;18.75;102401.13;5143962;27;45407;-55
2023/10/04 14:11:09;;;;;;;;;2.00;1.00;;;;;37.43;19.17;102405.53;5143969;27;46779;-56
2023/10/04 14:13:34;;;;;;;;;2.50;1.00;;;;;37.22;19.18;102398.09;5143879;27;45483;-55
2023/10/04 14:16:01;;;;;;;;;6.00;2.00;;;;;36.64;20.15;102393.75;5143703;27;45321;-55
2023/10/04 14:18:28;;;;;;;;;2.75;2.00;;;;;36.31;21.22;102371.13;5141356;27;45294;-57
2023/10/04 14:20:56;;;;;;;;;1.00;1.00;;;;;35.72;20.72;102385.28;5131313;27;46396;-56
2023/10/04 14:23:21;;;;;;;;;2.00;0.00;;;;;35.48;21.34;102380.84;5143272;27;45379;-56
2023/10/04 14:25:49;;;;;;;;;1.75;1.75;;;;;35.33;21.25;102370.75;5140478;27;45297;-55
2023/10/04 14:28:14;;;;;;;;;1.50;0.25;;;;;35.60;21.95;102376.50;5139126;27;45317;-56
2023/10/04 14:30:40;;;;;;;;;3.00;1.50;;;;;36.10;21.07;102362.69;5143601;27;46039;-55
2023/10/04 14:33:05;;;;;;;;;1.00;1.00;;;;;36.61;20.72;102358.69;5142858;27;47360;-56
2023/10/04 14:35:30;;;;;;;;;3.75;2.00;;;;;36.90;20.06;102356.78;5143857;27;45246;-56
2023/10/04 14:37:56;;;;;;;;;1.00;1.00;;;;;37.32;20.04;102353.81;5143239;27;45533;-55
2023/10/04 14:40:28;;;;;;;;;0.00;0.00;;;;;36.90;19.43;102352.06;5143718;27;45168;-56
2023/10/04 14:42:54;;;;;;;;;0.75;0.75;;;;;36.93;19.93;102346.03;5143421;27;45321;-55
2023/10/04 14:45:23;;;;;;;;;1.50;1.00;;;;;36.85;19.80;102348.13;5143547;27;45256;-57
2023/10/04 14:47:49;;;;;;;;;2.25;1.75;;;;;36.70;19.68;102337.94;5142761;27;45530;-55
2023/10/04 14:50:15;;;;;;;;;2.00;0.00;;;;;36.61;20.19;102338.25;5142207;27;45445;-55
2023/10/04 14:52:43;;;;;;;;;2.50;2.50;;;;;36.38;19.97;102342.16;5142911;27;45383;-56
2023/10/04 14:55:10;;;;;;;;;2.50;1.00;;;;;36.38;19.88;102335.72;5143438;27;45500;-57
2023/10/04 14:57:38;;;;;;;;;2.25;1.00;;;;;36.17;20.29;102339.34;5142845;27;45218;-56
2023/10/04 15:00:10;;;;;;;;;2.00;2.00;;;;;36.02;20.19;102346.94;5143139;27;46146;-58
2023/10/04 15:02:38;;;;;;;;;2.75;0.00;;;;;35.88;20.88;102351.53;5142239;27;45324;-57
2023/10/04 15:05:05;;;;;;;;;1.50;1.50;;;;;35.91;20.65;102344.66;5143313;27;45286;-55
2023/10/04 15:07:31;;;;;;;;;2.00;2.00;;;;;35.60;21.52;102340.22;5142912;27;45987;-58
2023/10/04 15:09:57;;;;;;;;;1.50;1.00;;;;;35.47;21.41;102342.88;5142836;27;46163;-56
2023/10/04 15:12:23;;;;;;;;;2.00;2.00;;;;;35.25;21.38;102335.47;5142780;27;45324;-56
2023/10/04 15:14:48;;;;;;;;;1.50;1.50;;;;;34.64;21.79;102337.53;5143176;27;45335;-56
2023/10/04 15:17:13;;;;;;;;;2.00;2.00;;;;;34.02;22.75;102343.31;5142447;27;45283;-57
2023/10/04 15:19:39;;;;;;;;;3.00;1.00;;;;;33.93;23.07;102344.41;5130474;27;47110;-54
2023/10/04 15:22:06;;;;;;;;;2.00;2.00;;;;;33.48;23.38;102339.63;5140956;27;45496;-56
2023/10/04 15:24:32;;;;;;;;;3.00;1.00;;;;;33.29;23.75;102340.06;5142821;27;45287;-54
2023/10/04 15:26:57;;;;;;;;;0.00;0.00;;;;;33.01;23.80;102340.47;5134001;27;45424;-54
2023/10/04 15:29:24;;;;;;;;;2.75;0.75;;;;;32.89;23.72;102336.34;5142798;27;46277;-54
2023/10/04 15:31:49;;;;;;;;;3.00;1.00;;;;;32.71;24.16;102334.84;5142304;27;45344;-55
2023/10/04 15:34:15;;;;;;;;;1.50;1.50;;;;;32.29;24.49;102342.31;5142694;27;45308;-55
2023/10/04 15:36:41;;;;;;;;;2.50;2.50;;;;;32.12;24.59;102339.69;5142316;27;45435;-55
2023/10/04 15:39:18;;;;;;;;;2.75;2.75;;;;;31.76;24.84;102334.44;5142434;27;45375;-52
2023/10/04 15:41:43;;;;;;;;;2.00;2.00;;;;;31.87;25.37;102331.34;5141995;27;45413;-55
2023/10/04 15:44:09;;;;;;;;;2.75;1.75;;;;;31.66;25.21;102336.50;5141902;27;45502;-52
2023/10/04 15:46:34;;;;;;;;;2.00;1.00;;;;;31.54;25.56;102335.06;5141982;27;45362;-55
2023/10/04 15:49:00;;;;;;;;;2.75;0.75;;;;;31.46;26.03;102340.59;5141276;27;46020;-54
2023/10/04 15:51:27;;;;;;;;;2.75;2.75;;;;;31.53;25.79;102338.88;5141213;27;45466;-56
2023/10/04 15:53:53;;;;;;;;;4.50;4.00;;;;;31.58;26.12;102333.66;5141805;27;45417;-58
2023/10/04 15:56:18;;;;;;;;;4.25;2.75;;;;;31.69;25.29;102340.84;5141448;27;45385;-55
2023/10/04 15:58:43;;;;;;;;;1.00;1.00;;;;;31.50;25.96;102339.19;5142007;27;45534;-56
2023/10/04 16:01:09;;;;;;;;;1.50;1.50;;;;;31.46;25.94;102329.50;5140802;27;57056;-54
2023/10/04 16:03:35;;;;;;;;;2.00;0.50;;;;;31.45;25.56;102322.22;5141997;27;45211;-54
2023/10/04 16:06:02;;;;;;;;;2.75;1.00;;;;;31.52;26.14;102321.34;5141411;27;45491;-54
2023/10/04 16:08:28;;;;;;;;;1.25;1.25;;;;;31.49;25.83;102329.13;5141926;27;46134;-54
2023/10/04 16:10:54;;;;;;;;;3.00;0.50;;;;;31.36;25.44;102324.09;5141599;27;45356;-54
2023/10/04 16:13:19;;;;;;;;;2.25;1.50;;;;;31.29;26.05;102311.06;5141622;27;45367;-56
2023/10/04 16:15:45;;;;;;;;;2.00;2.00;;;;;30.94;26.38;102323.19;5141578;27;46713;-55
2023/10/04 16:18:10;;;;;;;;;4.00;4.00;;;;;30.83;25.90;102327.97;5140168;27;45578;-55
2023/10/04 16:20:36;;;;;;;;;1.25;1.25;;;;;30.76;26.63;102321.34;5127420;27;45337;-56
2023/10/04 16:23:01;;;;;;;;;3.50;2.00;;;;;30.68;26.38;102318.53;5141567;27;45207;-55
2023/10/04 16:25:27;;;;;;;;;1.75;1.75;;;;;30.70;26.40;102327.56;5140854;27;45977;-55
2023/10/04 16:27:52;;;;;;;;;2.50;0.75;;;;;30.62;26.78;102321.09;5133830;27;45321;-55
2023/10/04 16:30:19;;;;;;;;;5.75;3.25;;;;;30.57;27.15;102323.47;5141638;27;45347;-54
2023/10/04 16:32:48;;;;;;;;;2.75;1.25;;;;;30.45;27.26;102320.09;5141521;27;45405;-56
2023/10/04 16:35:16;;;;;;;;;2.25;0.75;;;;;30.28;26.93;102321.00;5141409;27;46050;-55
2023/10/04 16:37:44;;;;;;;;;1.50;1.50;;;;;29.99;27.67;102319.34;5140890;27;45262;-56
2023/10/04 16:40:13;;;;;;;;;5.00;3.25;;;;;29.92;27.92;102317.34;5141222;27;45458;-62
2023/10/04 16:42:39;;;;;;;;;1.50;1.50;;;;;29.72;27.17;102322.16;5141387;27;45411;-62
2023/10/04 16:45:05;;;;;;;;;2.00;1.50;;;;;29.72;28.11;102322.16;5141365;27;46128;-62
2023/10/04 16:47:30;;;;;;;;;3.75;2.00;;;;;29.66;28.18;102311.72;5140724;27;46309;-63
2023/10/04 16:49:56;;;;;;;;;2.50;1.00;;;;;29.62;28.33;102313.94;5140215;27;45346;-62
2023/10/04 16:52:22;;;;;;;;;2.75;1.75;;;;;29.55;28.62;102306.41;5141553;27;45308;-62
2023/10/04 16:54:51;;;;;;;;;0.75;0.75;;;;;29.47;27.98;102314.63;5140854;27;45455;-62